N585RS MWCR-MKJP
Flight info
| Callsign | N585RS |
|---|---|
| Flight time | N/A |
| Altitude | 19000 |
| Route | REVAN DCT NALRO DCT KEMBOL DCT KEYNO |
| Aircraft | B58T/L-SDFGRY/C |
Departure
| Time | 2026-04-24 02:11 |
|---|---|
| Airport | Owen Roberts International Airport (MWCR) |
Arrival
| Time | N/A |
|---|---|
| Airport | Norman Manley International Airport (MKJP) |
| Time | Latitude | Longitude | Altitude | Speed | Heading |
|---|---|---|---|---|---|
| 2026-04-24 01:53 | 19.29367 | -81.36246 | 10 ft | 0 kts | 346° |
| 2026-04-24 02:00 | 19.29370 | -81.36247 | 10 ft | 0 kts | 347° |
| 2026-04-24 02:00 | 19.29371 | -81.36247 | 10 ft | 0 kts | 347° |
| 2026-04-24 02:00 | 19.29372 | -81.36247 | 10 ft | 0 kts | 347° |
| 2026-04-24 02:06 | 19.29374 | -81.36232 | 10 ft | 9 kts | 148° |
| 2026-04-24 02:06 | 19.29283 | -81.36220 | 10 ft | 16 kts | 167° |
| 2026-04-24 02:06 | 19.29172 | -81.36231 | 10 ft | 19 kts | 235° |
| 2026-04-24 02:07 | 19.29134 | -81.36379 | 11 ft | 23 kts | 256° |
| 2026-04-24 02:07 | 19.29092 | -81.36561 | 9 ft | 28 kts | 256° |
| 2026-04-24 02:07 | 19.29104 | -81.36758 | 10 ft | 28 kts | 248° |
| 2026-04-24 02:07 | 19.29060 | -81.36956 | 10 ft | 13 kts | 263° |
| 2026-04-24 02:08 | 19.29059 | -81.36963 | 10 ft | 0 kts | 263° |
| 2026-04-24 02:10 | 19.29057 | -81.36975 | 10 ft | 8 kts | 252° |
| 2026-04-24 02:10 | 19.28999 | -81.36963 | 10 ft | 17 kts | 84° |
| 2026-04-24 02:10 | 19.29078 | -81.36635 | 9 ft | 81 kts | 76° |
| 2026-04-24 02:11 | 19.29248 | -81.35893 | 94 ft | 121 kts | 75° |
| 2026-04-24 02:11 | 19.29503 | -81.34997 | 459 ft | 124 kts | 70° |
| 2026-04-24 02:11 | 19.29784 | -81.34093 | 745 ft | 135 kts | 72° |
| 2026-04-24 02:11 | 19.29992 | -81.33129 | 1139 ft | 135 kts | 80° |
| 2026-04-24 02:12 | 19.30142 | -81.32151 | 1411 ft | 137 kts | 78° |
| 2026-04-24 02:12 | 19.30361 | -81.31154 | 1621 ft | 140 kts | 84° |
| 2026-04-24 02:12 | 19.30186 | -81.30151 | 1845 ft | 143 kts | 112° |
| 2026-04-24 02:12 | 19.29600 | -81.29231 | 1879 ft | 154 kts | 133° |
| 2026-04-24 02:13 | 19.28836 | -81.28523 | 2305 ft | 140 kts | 137° |
| 2026-04-24 02:13 | 19.28118 | -81.27870 | 2658 ft | 134 kts | 136° |
| 2026-04-24 02:13 | 19.27426 | -81.27229 | 3009 ft | 132 kts | 136° |
| 2026-04-24 02:13 | 19.26743 | -81.26591 | 3452 ft | 127 kts | 136° |
| 2026-04-24 02:14 | 19.26097 | -81.25990 | 3948 ft | 120 kts | 136° |
| 2026-04-24 02:14 | 19.25492 | -81.25422 | 4439 ft | 111 kts | 136° |
| 2026-04-24 02:14 | 19.24957 | -81.24921 | 4907 ft | 99 kts | 137° |
| 2026-04-24 02:14 | 19.24435 | -81.24427 | 5197 ft | 105 kts | 136° |
| 2026-04-24 02:15 | 19.23853 | -81.23874 | 5406 ft | 119 kts | 137° |
| 2026-04-24 02:15 | 19.23301 | -81.23177 | 5620 ft | 130 kts | 112° |
| 2026-04-24 02:15 | 19.23106 | -81.22213 | 5829 ft | 139 kts | 97° |
| 2026-04-24 02:15 | 19.22990 | -81.21161 | 6032 ft | 147 kts | 98° |
| 2026-04-24 02:16 | 19.22837 | -81.20069 | 6234 ft | 153 kts | 100° |
| 2026-04-24 02:16 | 19.22650 | -81.18944 | 6423 ft | 157 kts | 101° |
| 2026-04-24 02:16 | 19.22452 | -81.17838 | 6723 ft | 154 kts | 102° |
| 2026-04-24 02:16 | 19.22244 | -81.16739 | 7022 ft | 151 kts | 102° |
| 2026-04-24 02:17 | 19.22034 | -81.15655 | 7320 ft | 150 kts | 102° |
| 2026-04-24 02:17 | 19.21826 | -81.14582 | 7619 ft | 148 kts | 102° |
| 2026-04-24 02:17 | 19.21619 | -81.13514 | 7922 ft | 148 kts | 102° |
| 2026-04-24 02:17 | 19.21410 | -81.12449 | 8220 ft | 148 kts | 102° |
| 2026-04-24 02:18 | 19.21201 | -81.11386 | 8521 ft | 147 kts | 102° |
| 2026-04-24 02:18 | 19.20992 | -81.10326 | 8822 ft | 147 kts | 102° |
| 2026-04-24 02:18 | 19.20788 | -81.09289 | 9119 ft | 145 kts | 102° |
| 2026-04-24 02:18 | 19.20584 | -81.08252 | 9418 ft | 144 kts | 102° |
| 2026-04-24 02:19 | 19.20379 | -81.07208 | 9719 ft | 145 kts | 102° |
| 2026-04-24 02:19 | 19.20173 | -81.06162 | 10021 ft | 146 kts | 102° |
| 2026-04-24 02:19 | 19.19966 | -81.05113 | 10322 ft | 146 kts | 103° |
| 2026-04-24 02:19 | 19.19759 | -81.04060 | 10623 ft | 147 kts | 102° |
| 2026-04-24 02:20 | 19.19611 | -81.03316 | 10835 ft | 148 kts | 102° |